createdAt,value
2023-04-19T00:01:05.519Z,19.43
2023-04-19T00:03:32.261Z,22.10
2023-04-19T00:05:59.252Z,18.13
2023-04-19T00:08:26.375Z,18.77
2023-04-19T00:10:53.101Z,21.00
2023-04-19T00:13:19.758Z,18.10
2023-04-19T00:15:46.425Z,23.13
2023-04-19T00:18:13.010Z,17.77
2023-04-19T00:20:39.679Z,16.33
2023-04-19T00:23:06.347Z,20.13
2023-04-19T00:25:34.569Z,19.00
2023-04-19T00:28:01.323Z,18.90
2023-04-19T00:30:27.983Z,16.57
2023-04-19T00:32:54.733Z,18.27
2023-04-19T00:35:21.473Z,19.30
2023-04-19T00:37:48.022Z,17.47
2023-04-19T00:40:14.717Z,18.00
2023-04-19T00:42:41.958Z,20.03
2023-04-19T00:45:09.099Z,15.80
2023-04-19T00:47:36.501Z,15.37
2023-04-19T00:50:06.783Z,15.90
2023-04-19T00:52:34.471Z,19.40
2023-04-19T00:55:02.094Z,16.47
2023-04-19T00:57:29.833Z,15.83
2023-04-19T00:59:57.691Z,16.00
2023-04-19T01:02:24.372Z,15.00
2023-04-19T01:04:51.384Z,16.13
2023-04-19T01:07:19.201Z,17.37
2023-04-19T01:09:46.414Z,17.47
2023-04-19T01:12:13.052Z,15.50
2023-04-19T01:14:39.997Z,16.87
2023-04-19T01:17:07.633Z,20.57
2023-04-19T01:19:38.539Z,16.17
2023-04-19T01:22:06.434Z,19.97
2023-04-19T01:24:34.088Z,16.90
2023-04-19T01:27:02.150Z,17.90
2023-04-19T01:29:28.699Z,16.27
2023-04-19T01:31:55.241Z,16.10
2023-04-19T01:34:23.116Z,18.13
2023-04-19T01:36:49.839Z,17.37
2023-04-19T01:39:16.566Z,17.47
2023-04-19T01:41:43.179Z,15.67
2023-04-19T01:44:09.762Z,15.80
2023-04-19T01:46:38.720Z,19.07
2023-04-19T01:49:05.324Z,15.50
2023-04-19T01:51:31.973Z,20.37
2023-04-19T01:53:58.572Z,12.90
2023-04-19T01:56:26.032Z,15.27
2023-04-19T01:58:52.568Z,15.43
2023-04-19T02:01:19.256Z,26.80
2023-04-19T02:03:46.329Z,16.70
2023-04-19T02:06:13.802Z,13.90
2023-04-19T02:08:41.874Z,13.37
2023-04-19T02:11:09.571Z,14.30
2023-04-19T02:13:36.430Z,14.50
2023-04-19T02:16:03.505Z,12.73
2023-04-19T02:18:30.158Z,13.83
2023-04-19T02:20:56.819Z,13.70
2023-04-19T02:23:23.414Z,11.27
2023-04-19T02:25:50.765Z,13.37
2023-04-19T02:28:17.381Z,11.60
2023-04-19T02:30:43.936Z,11.07
2023-04-19T02:33:10.512Z,11.43
2023-04-19T02:35:37.321Z,9.73
2023-04-19T02:38:04.428Z,8.57
2023-04-19T02:40:31.533Z,15.03
2023-04-19T02:42:58.111Z,11.73
2023-04-19T02:45:24.758Z,9.10
2023-04-19T02:47:51.304Z,14.33
2023-04-19T02:50:17.909Z,10.30
2023-04-19T02:52:44.488Z,10.63
2023-04-19T02:55:11.152Z,9.50
2023-04-19T02:57:37.712Z,11.23
2023-04-19T03:00:05.833Z,14.83
2023-04-19T03:02:32.439Z,11.13
2023-04-19T03:04:59.141Z,9.50
2023-04-19T03:07:26.139Z,9.70
2023-04-19T03:09:52.738Z,11.63
2023-04-19T03:12:19.323Z,13.83
2023-04-19T03:14:45.964Z,8.77
2023-04-19T03:17:12.532Z,10.67
2023-04-19T03:19:39.092Z,10.07
2023-04-19T03:22:05.749Z,10.10
2023-04-19T03:24:33.066Z,12.63
2023-04-19T03:27:01.004Z,10.27
2023-04-19T03:29:27.557Z,8.80
2023-04-19T03:31:54.265Z,9.53
2023-04-19T03:34:20.915Z,8.50
2023-04-19T03:36:47.568Z,7.10
2023-04-19T03:39:14.156Z,9.37
2023-04-19T03:41:40.764Z,8.93
2023-04-19T03:44:07.362Z,9.10
2023-04-19T03:46:33.989Z,10.23
2023-04-19T03:49:00.629Z,8.70
2023-04-19T03:51:27.655Z,9.83
2023-04-19T03:53:54.223Z,9.53
2023-04-19T03:56:20.879Z,8.47
2023-04-19T03:58:47.550Z,8.17
2023-04-19T04:01:21.158Z,10.00
2023-04-19T04:03:48.354Z,10.50
2023-04-19T04:06:15.606Z,10.97
2023-04-19T04:08:42.244Z,6.77
2023-04-19T04:11:08.953Z,8.70
2023-04-19T04:13:35.586Z,7.90
2023-04-19T04:16:02.285Z,9.40
2023-04-19T04:18:28.939Z,9.70
2023-04-19T04:20:55.572Z,9.53
2023-04-19T04:23:22.682Z,8.53
2023-04-19T04:25:59.041Z,11.17
2023-04-19T04:28:25.648Z,10.03
2023-04-19T04:30:52.191Z,9.57
2023-04-19T04:33:18.854Z,8.80
2023-04-19T04:35:45.448Z,9.67
2023-04-19T04:38:23.703Z,10.83
2023-04-19T04:40:55.036Z,8.77
2023-04-19T04:43:23.101Z,11.17
2023-04-19T04:45:50.209Z,10.30
2023-04-19T04:48:16.791Z,9.10
2023-04-19T04:50:44.151Z,10.00
2023-04-19T04:53:13.162Z,11.00
2023-04-19T04:55:39.893Z,8.47
2023-04-19T04:58:06.961Z,8.40
2023-04-19T05:00:34.268Z,9.50
2023-04-19T05:03:02.122Z,9.93
2023-04-19T05:05:28.905Z,9.60
2023-04-19T05:07:55.478Z,10.07
2023-04-19T05:10:22.053Z,11.80
2023-04-19T05:12:48.659Z,7.80
2023-04-19T05:15:17.813Z,11.73
2023-04-19T05:17:44.456Z,13.03
2023-04-19T05:20:11.911Z,8.73
2023-04-19T05:22:38.709Z,11.57
2023-04-19T05:25:06.335Z,7.77
2023-04-19T05:27:32.961Z,8.20
2023-04-19T05:29:59.504Z,9.43
2023-04-19T05:32:26.173Z,11.10
2023-04-19T05:34:52.864Z,10.90
2023-04-19T05:37:19.424Z,7.73
2023-04-19T05:39:45.990Z,9.07
2023-04-19T05:42:12.551Z,8.87
2023-04-19T05:44:39.106Z,8.10
2023-04-19T05:47:05.711Z,7.70
2023-04-19T05:49:32.270Z,10.43
2023-04-19T05:51:58.801Z,7.10
2023-04-19T05:54:25.405Z,6.67
2023-04-19T05:56:51.963Z,6.83
2023-04-19T05:59:18.554Z,8.93
2023-04-19T06:01:45.464Z,7.43
2023-04-19T06:04:12.174Z,7.60
2023-04-19T06:06:39.196Z,7.50
2023-04-19T06:09:07.038Z,6.23
2023-04-19T06:11:42.941Z,7.50
2023-04-19T06:14:16.827Z,6.60
2023-04-19T06:16:43.650Z,8.30
2023-04-19T06:19:10.221Z,6.10
2023-04-19T06:21:36.943Z,8.83
2023-04-19T06:24:03.858Z,5.90
2023-04-19T06:26:30.528Z,6.10
2023-04-19T06:28:57.250Z,5.97
2023-04-19T06:31:23.966Z,6.33
2023-04-19T06:33:50.968Z,6.63
2023-04-19T06:36:17.639Z,11.57
2023-04-19T06:38:46.138Z,6.20
2023-04-19T06:41:13.083Z,4.90
2023-04-19T06:43:40.771Z,9.30
2023-04-19T06:46:07.806Z,6.87
2023-04-19T06:48:35.433Z,8.53
2023-04-19T06:51:02.097Z,10.50
2023-04-19T06:53:28.714Z,6.80
2023-04-19T06:56:04.314Z,6.33
2023-04-19T06:58:35.141Z,5.03
2023-04-19T07:01:04.394Z,5.67
2023-04-19T07:03:31.595Z,4.30
2023-04-19T07:05:58.574Z,4.67
2023-04-19T07:08:32.162Z,5.93
2023-04-19T07:11:05.755Z,7.20
2023-04-19T07:13:32.349Z,6.33
2023-04-19T07:15:58.965Z,5.00
2023-04-19T07:18:25.669Z,4.37
2023-04-19T07:20:52.230Z,3.70
2023-04-19T07:23:19.368Z,5.63
2023-04-19T07:25:46.395Z,4.70
2023-04-19T07:28:13.105Z,4.40
2023-04-19T07:30:39.798Z,3.93
2023-04-19T07:33:08.513Z,6.33
2023-04-19T07:35:35.800Z,6.03
2023-04-19T07:38:02.449Z,4.17
2023-04-19T07:40:29.132Z,4.67
2023-04-19T07:42:56.336Z,4.50
2023-04-19T07:45:23.373Z,6.67
2023-04-19T07:47:50.419Z,4.77
2023-04-19T07:50:17.464Z,3.77
2023-04-19T07:52:44.278Z,6.10
2023-04-19T07:55:10.882Z,3.37
2023-04-19T07:57:37.565Z,4.60
2023-04-19T08:00:05.011Z,3.50
2023-04-19T08:02:31.795Z,2.50
2023-04-19T08:04:58.581Z,5.57
2023-04-19T08:07:26.104Z,5.30
2023-04-19T08:09:52.835Z,3.50
2023-04-19T08:12:32.778Z,3.27
2023-04-19T08:15:28.193Z,4.13
2023-04-19T08:17:54.520Z,3.90
2023-04-19T08:20:21.708Z,4.80
2023-04-19T08:22:49.319Z,4.77
2023-04-19T08:25:16.532Z,4.70
2023-04-19T08:27:43.298Z,3.77
2023-04-19T08:30:10.959Z,5.53
2023-04-19T08:32:37.845Z,3.13
2023-04-19T08:35:05.504Z,3.47
2023-04-19T08:37:32.054Z,4.07
2023-04-19T08:39:58.745Z,2.37
2023-04-19T08:42:35.762Z,4.40
2023-04-19T08:47:51.866Z,3.83
2023-04-19T08:50:31.910Z,3.67
2023-04-19T08:53:12.327Z,3.53
2023-04-19T08:58:30.722Z,4.77
2023-04-19T09:01:11.172Z,3.63
2023-04-19T09:04:00.551Z,3.70
2023-04-19T09:06:40.656Z,2.17
2023-04-19T09:11:49.521Z,3.53
2023-04-19T09:14:19.601Z,4.93
2023-04-19T09:16:46.283Z,3.40
2023-04-19T09:19:23.176Z,4.30
2023-04-19T09:21:53.686Z,4.90
2023-04-19T09:25:04.477Z,3.80
2023-04-19T09:27:28.836Z,4.20
2023-04-19T09:29:56.950Z,2.90
2023-04-19T09:32:24.744Z,2.90
2023-04-19T09:34:52.895Z,5.90
2023-04-19T09:37:38.392Z,3.00
2023-04-19T09:40:25.732Z,3.90
2023-04-19T09:45:31.025Z,2.67
2023-04-19T09:48:03.294Z,4.27
2023-04-19T09:50:31.904Z,5.30
2023-04-19T09:52:59.892Z,6.83
2023-04-19T09:55:28.826Z,3.23
2023-04-19T09:57:56.925Z,5.40
2023-04-19T10:00:23.666Z,3.20
2023-04-19T10:02:57.972Z,5.90
2023-04-19T10:05:25.625Z,3.20
2023-04-19T10:07:55.685Z,3.63
2023-04-19T10:10:40.623Z,4.70
2023-04-19T10:13:19.924Z,3.57
2023-04-19T10:15:53.951Z,4.43
2023-04-19T10:18:24.215Z,2.60
2023-04-19T10:21:06.503Z,11.67
2023-04-19T10:23:33.623Z,3.03
2023-04-19T10:26:00.364Z,5.63
2023-04-19T10:28:30.934Z,5.90
2023-04-19T10:31:03.336Z,9.13
2023-04-19T10:33:34.442Z,5.20
2023-04-19T10:36:01.718Z,4.43
2023-04-19T10:38:47.175Z,3.07
2023-04-19T10:41:21.586Z,8.70
2023-04-19T10:44:09.159Z,10.53
2023-04-19T10:46:36.987Z,13.03
2023-04-19T10:49:05.032Z,4.17
2023-04-19T10:51:36.118Z,8.70
2023-04-19T10:54:10.134Z,26.73
2023-04-19T10:56:36.746Z,29.87
2023-04-19T10:59:13.005Z,23.67
2023-04-19T11:01:46.817Z,6.77
2023-04-19T11:04:23.264Z,8.73
2023-04-19T11:06:52.714Z,8.00
2023-04-19T11:09:39.218Z,6.00
2023-04-19T11:12:17.030Z,3.77
2023-04-19T11:14:46.568Z,7.07
2023-04-19T11:17:31.654Z,4.10
2023-04-19T11:20:10.117Z,4.60
2023-04-19T11:22:42.043Z,5.10
2023-04-19T11:25:12.197Z,5.50
2023-04-19T11:27:40.777Z,4.50
2023-04-19T11:30:19.953Z,10.40
2023-04-19T11:32:50.713Z,10.23
2023-04-19T11:35:22.153Z,6.53
2023-04-19T11:37:49.760Z,5.10
2023-04-19T11:40:18.092Z,6.27
2023-04-19T11:42:45.260Z,5.77
2023-04-19T11:45:25.974Z,4.10
2023-04-19T11:47:57.001Z,4.77
2023-04-19T11:50:38.508Z,12.90
2023-04-19T11:53:14.081Z,5.67
2023-04-19T11:55:54.600Z,5.50
2023-04-19T11:58:25.686Z,28.17
2023-04-19T12:00:52.565Z,5.03
2023-04-19T12:03:27.095Z,11.40
2023-04-19T12:05:58.906Z,36.83
2023-04-19T12:08:48.639Z,17.10
2023-04-19T12:11:16.975Z,29.40
2023-04-19T12:13:44.535Z,27.13
2023-04-19T12:16:12.529Z,16.25
2023-04-19T12:18:44.513Z,30.37
2023-04-19T12:21:23.405Z,8.93
2023-04-19T12:23:50.922Z,8.63
2023-04-19T12:26:17.538Z,10.13
2023-04-19T12:28:44.071Z,11.10
2023-04-19T12:31:11.021Z,5.67
2023-04-19T12:33:37.848Z,6.17
2023-04-19T12:36:04.896Z,5.67
2023-04-19T12:38:34.158Z,4.17
2023-04-19T12:41:01.647Z,4.77
2023-04-19T12:43:29.976Z,3.30
2023-04-19T12:45:56.841Z,5.20
2023-04-19T12:48:23.574Z,3.83
2023-04-19T12:50:50.197Z,5.90
2023-04-19T12:53:16.828Z,4.43
2023-04-19T12:55:47.482Z,3.77
2023-04-19T12:58:15.692Z,13.30
2023-04-19T13:00:42.738Z,17.07
2023-04-19T13:03:09.544Z,8.90
2023-04-19T13:05:36.215Z,14.33
2023-04-19T13:08:02.954Z,7.60
2023-04-19T13:10:29.500Z,12.50
2023-04-19T13:12:56.647Z,5.60
2023-04-19T13:15:23.225Z,5.57
2023-04-19T13:17:49.875Z,6.93
2023-04-19T13:20:17.648Z,3.70
2023-04-19T13:22:44.281Z,44.57
2023-04-19T13:25:11.172Z,75.40
2023-04-19T13:27:37.833Z,29.23
2023-04-19T13:30:04.748Z,17.43
2023-04-19T13:32:31.427Z,19.20
2023-04-19T13:34:58.018Z,6.07
2023-04-19T13:37:24.589Z,5.20
2023-04-19T13:39:51.294Z,11.00
2023-04-19T13:42:18.948Z,6.37
2023-04-19T13:44:45.596Z,6.17
2023-04-19T13:47:12.271Z,5.20
2023-04-19T13:49:41.672Z,18.33
2023-04-19T13:52:09.704Z,5.50
2023-04-19T13:54:36.302Z,3.70
2023-04-19T13:57:02.947Z,4.00
2023-04-19T13:59:30.156Z,4.60
2023-04-19T14:01:56.808Z,4.63
2023-04-19T14:04:24.119Z,2.80
2023-04-19T14:06:51.159Z,3.00
2023-04-19T14:09:17.696Z,2.77
2023-04-19T14:11:44.267Z,11.40
2023-04-19T14:14:11.284Z,8.63
2023-04-19T14:16:37.888Z,5.70
2023-04-19T14:19:04.504Z,4.03
2023-04-19T14:21:31.369Z,7.20
2023-04-19T14:23:58.077Z,6.63
2023-04-19T14:26:26.290Z,5.80
2023-04-19T14:28:54.125Z,4.63
2023-04-19T14:31:20.830Z,22.17
2023-04-19T14:33:47.556Z,8.97
2023-04-19T14:36:15.468Z,5.27
2023-04-19T14:38:42.005Z,4.90
2023-04-19T14:41:08.539Z,5.00
2023-04-19T14:43:35.086Z,7.60
2023-04-19T14:46:01.746Z,3.97
2023-04-19T14:48:28.443Z,3.60
2023-04-19T14:50:55.714Z,3.27
2023-04-19T14:53:22.300Z,8.30
2023-04-19T14:55:48.928Z,5.90
2023-04-19T14:58:15.585Z,8.43
2023-04-19T15:00:42.461Z,5.00
2023-04-19T15:03:09.109Z,5.13
2023-04-19T15:05:36.496Z,2.97
2023-04-19T15:08:03.231Z,2.50
2023-04-19T15:10:29.903Z,3.13
2023-04-19T15:12:56.637Z,5.50
2023-04-19T15:15:23.222Z,2.30
2023-04-19T15:17:49.811Z,4.87
2023-04-19T15:20:16.518Z,3.93
2023-04-19T15:22:43.103Z,4.87
2023-04-19T15:25:09.854Z,7.30
2023-04-19T15:27:36.614Z,4.40
2023-04-19T15:30:03.732Z,2.63
2023-04-19T15:32:34.147Z,3.27
2023-04-19T15:35:00.771Z,2.00
2023-04-19T15:37:27.526Z,4.43
2023-04-19T15:39:54.131Z,1.67
2023-04-19T15:42:20.680Z,2.90
2023-04-19T15:44:47.258Z,1.90
2023-04-19T15:47:13.867Z,2.63
2023-04-19T15:49:40.633Z,5.13
2023-04-19T15:52:08.795Z,4.87
2023-04-19T15:54:37.555Z,3.33
2023-04-19T15:57:04.123Z,3.40
2023-04-19T15:59:31.471Z,6.13
2023-04-19T16:01:58.188Z,2.40
2023-04-19T16:04:25.023Z,2.20
2023-04-19T16:06:51.938Z,2.40
2023-04-19T16:09:19.207Z,3.37
2023-04-19T16:11:45.946Z,2.30
2023-04-19T16:14:12.521Z,1.93
2023-04-19T16:16:39.243Z,3.07
2023-04-19T16:19:05.911Z,2.40
2023-04-19T16:21:32.623Z,4.13
2023-04-19T16:24:00.798Z,1.93
2023-04-19T16:26:27.423Z,4.13
2023-04-19T16:28:54.106Z,2.30
2023-04-19T16:31:23.984Z,3.17
2023-04-19T16:33:50.761Z,2.30
2023-04-19T16:36:17.327Z,2.30
2023-04-19T16:38:43.858Z,2.37
2023-04-19T16:41:11.466Z,3.60
2023-04-19T16:43:38.071Z,3.30
2023-04-19T16:46:06.935Z,4.37
2023-04-19T16:48:33.571Z,4.00
2023-04-19T16:51:00.118Z,2.90
2023-04-19T16:53:26.700Z,4.57
2023-04-19T16:55:55.018Z,2.27
2023-04-19T16:58:22.867Z,5.53
2023-04-19T17:00:49.536Z,4.40
2023-04-19T17:03:16.601Z,3.97
2023-04-19T17:05:43.255Z,5.13
2023-04-19T17:08:11.006Z,2.87
2023-04-19T17:10:38.068Z,4.57
2023-04-19T17:13:04.622Z,7.70
2023-04-19T17:15:31.457Z,6.83
2023-04-19T17:17:58.127Z,2.90
2023-04-19T17:20:24.706Z,2.77
2023-04-19T17:22:51.397Z,4.13
2023-04-19T17:25:18.338Z,3.53
2023-04-19T17:27:45.796Z,5.47
2023-04-19T17:30:12.917Z,4.30
2023-04-19T17:32:40.337Z,4.87
2023-04-19T17:35:07.392Z,4.90
2023-04-19T17:37:34.022Z,5.73
2023-04-19T17:40:00.559Z,4.27
2023-04-19T17:42:27.192Z,5.33
2023-04-19T17:44:53.819Z,4.40
2023-04-19T17:47:20.488Z,3.63
2023-04-19T17:49:47.251Z,4.80
2023-04-19T17:52:13.920Z,5.30
2023-04-19T17:54:40.989Z,5.83
2023-04-19T17:57:07.643Z,7.07
2023-04-19T17:59:34.339Z,5.23
2023-04-19T18:02:01.214Z,5.90
2023-04-19T18:04:28.114Z,5.90
2023-04-19T18:06:54.779Z,5.70
2023-04-19T18:09:21.330Z,5.00
2023-04-19T18:11:48.100Z,6.80
2023-04-19T18:14:15.316Z,5.63
2023-04-19T18:16:41.948Z,7.37
2023-04-19T18:19:08.604Z,4.53
2023-04-19T18:21:35.581Z,5.17
2023-04-19T18:24:02.280Z,7.13
2023-04-19T18:26:41.615Z,5.27
2023-04-19T18:29:08.987Z,6.00
2023-04-19T18:31:35.761Z,5.90
2023-04-19T18:34:02.864Z,6.40
2023-04-19T18:36:29.755Z,5.83
2023-04-19T18:38:56.605Z,7.53
2023-04-19T18:41:23.244Z,4.50
2023-04-19T18:44:08.172Z,6.20
2023-04-19T18:46:36.509Z,7.10
2023-04-19T18:49:03.200Z,8.20
2023-04-19T18:51:30.077Z,6.23
2023-04-19T18:53:56.984Z,5.23
2023-04-19T18:59:38.367Z,5.50
2023-04-19T19:02:05.435Z,6.77
2023-04-19T19:04:50.086Z,4.53
2023-04-19T19:07:36.741Z,4.10
2023-04-19T19:10:16.779Z,6.00
2023-04-19T19:12:47.883Z,4.77
2023-04-19T19:15:21.829Z,7.93
2023-04-19T19:17:50.203Z,8.47
2023-04-19T19:20:18.581Z,6.50
2023-04-19T19:22:45.478Z,6.27
2023-04-19T19:25:12.994Z,5.50
2023-04-19T19:27:40.098Z,10.93
2023-04-19T19:30:07.785Z,5.13
2023-04-19T19:32:34.675Z,5.40
2023-04-19T19:35:05.584Z,6.60
2023-04-19T19:37:35.426Z,4.67
2023-04-19T19:40:05.117Z,5.83
2023-04-19T19:42:34.090Z,5.83
2023-04-19T19:45:01.967Z,8.10
2023-04-19T19:47:31.192Z,4.13
2023-04-19T19:52:28.440Z,5.10
2023-04-19T19:54:55.026Z,5.10
2023-04-19T19:58:15.588Z,4.70
2023-04-19T20:00:28.055Z,4.00
2023-04-19T20:02:58.833Z,8.60
2023-04-19T20:05:26.331Z,5.13
2023-04-19T20:08:05.663Z,10.63
2023-04-19T20:10:32.475Z,5.80
2023-04-19T20:13:01.205Z,6.73
2023-04-19T20:15:28.050Z,4.40
2023-04-19T20:17:54.630Z,4.00
2023-04-19T20:20:21.345Z,8.10
2023-04-19T20:22:48.054Z,3.87
2023-04-19T20:25:15.072Z,5.47
2023-04-19T20:27:41.734Z,5.83
2023-04-19T20:30:09.264Z,4.90
2023-04-19T20:32:36.563Z,5.20
2023-04-19T20:35:08.328Z,4.60
2023-04-19T20:37:39.627Z,4.57
2023-04-19T20:40:07.535Z,7.80
2023-04-19T20:42:34.183Z,6.50
2023-04-19T20:45:00.757Z,5.27
2023-04-19T20:47:27.366Z,5.10
2023-04-19T20:49:53.941Z,5.10
2023-04-19T20:52:20.693Z,6.30
2023-04-19T20:54:47.291Z,4.80
2023-04-19T20:57:14.806Z,4.70
2023-04-19T20:59:41.510Z,3.93
2023-04-19T21:02:08.432Z,4.13
2023-04-19T21:04:36.048Z,4.97
2023-04-19T21:07:02.848Z,13.00
2023-04-19T21:09:29.474Z,4.30
2023-04-19T21:11:56.592Z,5.10
2023-04-19T21:14:23.151Z,8.20
2023-04-19T21:16:49.746Z,3.83
2023-04-19T21:19:17.072Z,3.60
2023-04-19T21:21:43.802Z,3.00
2023-04-19T21:24:10.341Z,8.13
2023-04-19T21:26:36.916Z,6.00
2023-04-19T21:29:03.523Z,7.10
2023-04-19T21:31:30.150Z,4.43
2023-04-19T21:33:56.720Z,6.30
2023-04-19T21:36:23.265Z,5.53
2023-04-19T21:38:49.856Z,9.50
2023-04-19T21:41:16.396Z,7.63
2023-04-19T21:43:43.024Z,4.47
2023-04-19T21:46:09.580Z,6.40
2023-04-19T21:48:36.192Z,8.47
2023-04-19T21:51:02.851Z,4.30
2023-04-19T21:53:29.537Z,5.53
2023-04-19T21:55:56.229Z,9.40
2023-04-19T21:58:22.831Z,4.27
2023-04-19T22:00:49.528Z,6.03
2023-04-19T22:03:16.233Z,8.20
2023-04-19T22:05:45.857Z,4.43
2023-04-19T22:08:12.460Z,3.30
2023-04-19T22:10:39.311Z,4.60
2023-04-19T22:13:05.937Z,3.87
2023-04-19T22:15:32.597Z,7.00
2023-04-19T22:17:59.213Z,7.00
2023-04-19T22:20:26.793Z,4.07
2023-04-19T22:22:53.440Z,3.40
2023-04-19T22:25:20.180Z,4.83
2023-04-19T22:27:48.689Z,6.63
2023-04-19T22:30:16.079Z,10.43
2023-04-19T22:32:42.752Z,5.03
2023-04-19T22:35:12.296Z,5.63
2023-04-19T22:37:38.893Z,4.27
2023-04-19T22:40:06.682Z,5.03
2023-04-19T22:42:33.251Z,8.30
2023-04-19T22:44:59.826Z,7.00
2023-04-19T22:47:26.464Z,5.57
2023-04-19T22:49:54.125Z,8.00
2023-04-19T22:52:20.776Z,5.07
2023-04-19T22:54:47.346Z,5.43
2023-04-19T22:57:13.962Z,6.83
2023-04-19T22:59:40.521Z,5.27
2023-04-19T23:02:07.174Z,6.73
2023-04-19T23:04:35.340Z,6.53
2023-04-19T23:07:02.981Z,5.87
2023-04-19T23:09:29.854Z,4.50
2023-04-19T23:11:58.472Z,7.13
2023-04-19T23:14:25.105Z,3.60
2023-04-19T23:16:54.554Z,4.20
2023-04-19T23:19:22.714Z,5.50
2023-04-19T23:21:50.196Z,7.27
2023-04-19T23:24:17.536Z,6.00
2023-04-19T23:26:44.171Z,5.23
2023-04-19T23:29:10.766Z,5.47
2023-04-19T23:31:37.387Z,6.70
2023-04-19T23:34:04.086Z,9.83
2023-04-19T23:36:31.194Z,7.20
2023-04-19T23:38:57.888Z,6.23
2023-04-19T23:41:24.616Z,5.03
2023-04-19T23:43:51.419Z,8.03
2023-04-19T23:46:17.985Z,5.20
2023-04-19T23:48:44.602Z,3.73
2023-04-19T23:51:12.461Z,4.57
2023-04-19T23:53:39.081Z,7.00
2023-04-19T23:56:06.457Z,4.70
2023-04-19T23:58:33.071Z,5.00
